sensor_id;sensor_type;location;lat;lon;timestamp;P1;durP1;ratioP1;P2;durP2;ratioP2
82028;SDS011;71590;52.216;13.448;2023-10-31T00:00:41;7.37;;;4.43;;
82028;SDS011;71590;52.216;13.448;2023-10-31T00:03:08;6.00;;;5.20;;
82028;SDS011;71590;52.216;13.448;2023-10-31T00:05:36;5.70;;;4.73;;
82028;SDS011;71590;52.216;13.448;2023-10-31T00:08:04;7.60;;;5.77;;
82028;SDS011;71590;52.216;13.448;2023-10-31T00:10:31;6.70;;;5.10;;
82028;SDS011;71590;52.216;13.448;2023-10-31T00:12:59;11.47;;;5.37;;
82028;SDS011;71590;52.216;13.448;2023-10-31T00:15:26;5.67;;;4.60;;
82028;SDS011;71590;52.216;13.448;2023-10-31T00:17:55;5.50;;;4.50;;
82028;SDS011;71590;52.216;13.448;2023-10-31T00:20:22;10.07;;;5.23;;
82028;SDS011;71590;52.216;13.448;2023-10-31T00:22:49;8.93;;;5.27;;
82028;SDS011;71590;52.216;13.448;2023-10-31T00:25:17;8.87;;;4.90;;
82028;SDS011;71590;52.216;13.448;2023-10-31T00:27:44;7.10;;;5.20;;
82028;SDS011;71590;52.216;13.448;2023-10-31T00:30:12;6.50;;;5.13;;
82028;SDS011;71590;52.216;13.448;2023-10-31T00:32:39;5.57;;;4.97;;
82028;SDS011;71590;52.216;13.448;2023-10-31T00:35:06;7.33;;;4.63;;
82028;SDS011;71590;52.216;13.448;2023-10-31T00:37:33;6.07;;;4.53;;
82028;SDS011;71590;52.216;13.448;2023-10-31T00:40:01;9.23;;;5.10;;
82028;SDS011;71590;52.216;13.448;2023-10-31T00:42:29;8.17;;;4.70;;
82028;SDS011;71590;52.216;13.448;2023-10-31T00:44:56;8.73;;;4.57;;
82028;SDS011;71590;52.216;13.448;2023-10-31T00:47:23;8.70;;;4.70;;
82028;SDS011;71590;52.216;13.448;2023-10-31T00:49:50;6.57;;;5.10;;
82028;SDS011;71590;52.216;13.448;2023-10-31T00:52:19;7.33;;;4.80;;
82028;SDS011;71590;52.216;13.448;2023-10-31T00:54:47;6.27;;;5.13;;
82028;SDS011;71590;52.216;13.448;2023-10-31T00:57:15;9.97;;;5.70;;
82028;SDS011;71590;52.216;13.448;2023-10-31T00:59:42;9.40;;;5.23;;
82028;SDS011;71590;52.216;13.448;2023-10-31T01:02:10;5.93;;;5.10;;
82028;SDS011;71590;52.216;13.448;2023-10-31T01:04:37;8.10;;;4.80;;
82028;SDS011;71590;52.216;13.448;2023-10-31T01:07:04;6.97;;;5.00;;
82028;SDS011;71590;52.216;13.448;2023-10-31T01:09:33;9.27;;;5.90;;
82028;SDS011;71590;52.216;13.448;2023-10-31T01:12:00;6.93;;;5.70;;
82028;SDS011;71590;52.216;13.448;2023-10-31T01:14:28;7.30;;;5.50;;
82028;SDS011;71590;52.216;13.448;2023-10-31T01:16:55;9.50;;;5.40;;
82028;SDS011;71590;52.216;13.448;2023-10-31T01:19:22;7.07;;;5.97;;
82028;SDS011;71590;52.216;13.448;2023-10-31T01:21:49;11.70;;;5.53;;
82028;SDS011;71590;52.216;13.448;2023-10-31T01:24:16;6.87;;;5.43;;
82028;SDS011;71590;52.216;13.448;2023-10-31T01:26:44;10.70;;;6.30;;
82028;SDS011;71590;52.216;13.448;2023-10-31T01:29:11;6.40;;;5.63;;
82028;SDS011;71590;52.216;13.448;2023-10-31T01:31:40;7.80;;;6.63;;
82028;SDS011;71590;52.216;13.448;2023-10-31T01:34:10;7.83;;;6.43;;
82028;SDS011;71590;52.216;13.448;2023-10-31T01:36:38;11.10;;;6.80;;
82028;SDS011;71590;52.216;13.448;2023-10-31T01:39:05;7.50;;;6.60;;
82028;SDS011;71590;52.216;13.448;2023-10-31T01:41:34;7.70;;;6.13;;
82028;SDS011;71590;52.216;13.448;2023-10-31T01:44:01;7.17;;;6.37;;
82028;SDS011;71590;52.216;13.448;2023-10-31T01:46:28;7.47;;;6.63;;
82028;SDS011;71590;52.216;13.448;2023-10-31T01:48:56;10.03;;;7.03;;
82028;SDS011;71590;52.216;13.448;2023-10-31T01:51:23;9.77;;;6.63;;
82028;SDS011;71590;52.216;13.448;2023-10-31T01:53:50;8.10;;;6.93;;
82028;SDS011;71590;52.216;13.448;2023-10-31T01:56:17;8.47;;;7.27;;
82028;SDS011;71590;52.216;13.448;2023-10-31T01:58:45;11.57;;;6.57;;
82028;SDS011;71590;52.216;13.448;2023-10-31T02:01:14;7.97;;;6.40;;
82028;SDS011;71590;52.216;13.448;2023-10-31T02:03:41;9.73;;;5.60;;
82028;SDS011;71590;52.216;13.448;2023-10-31T02:06:08;10.33;;;6.23;;
82028;SDS011;71590;52.216;13.448;2023-10-31T02:08:36;8.80;;;6.80;;
82028;SDS011;71590;52.216;13.448;2023-10-31T02:11:03;10.67;;;6.70;;
82028;SDS011;71590;52.216;13.448;2023-10-31T02:13:32;7.43;;;6.30;;
82028;SDS011;71590;52.216;13.448;2023-10-31T02:15:59;9.43;;;6.80;;
82028;SDS011;71590;52.216;13.448;2023-10-31T02:18:26;8.50;;;6.23;;
82028;SDS011;71590;52.216;13.448;2023-10-31T02:20:54;13.27;;;6.30;;
82028;SDS011;71590;52.216;13.448;2023-10-31T02:23:21;8.67;;;6.27;;
82028;SDS011;71590;52.216;13.448;2023-10-31T02:25:48;8.20;;;6.70;;
82028;SDS011;71590;52.216;13.448;2023-10-31T02:28:16;12.40;;;6.50;;
82028;SDS011;71590;52.216;13.448;2023-10-31T02:30:43;8.93;;;6.30;;
82028;SDS011;71590;52.216;13.448;2023-10-31T02:33:11;9.23;;;6.90;;
82028;SDS011;71590;52.216;13.448;2023-10-31T02:35:38;9.53;;;7.20;;
82028;SDS011;71590;52.216;13.448;2023-10-31T02:38:06;10.87;;;6.87;;
82028;SDS011;71590;52.216;13.448;2023-10-31T02:40:33;10.37;;;6.70;;
82028;SDS011;71590;52.216;13.448;2023-10-31T02:43:00;7.43;;;6.67;;
82028;SDS011;71590;52.216;13.448;2023-10-31T02:45:28;8.17;;;5.50;;
82028;SDS011;71590;52.216;13.448;2023-10-31T02:47:56;9.10;;;7.40;;
82028;SDS011;71590;52.216;13.448;2023-10-31T02:50:23;10.03;;;7.00;;
82028;SDS011;71590;52.216;13.448;2023-10-31T02:52:50;9.77;;;7.77;;
82028;SDS011;71590;52.216;13.448;2023-10-31T02:55:17;8.70;;;7.27;;
82028;SDS011;71590;52.216;13.448;2023-10-31T02:57:44;9.70;;;7.20;;
82028;SDS011;71590;52.216;13.448;2023-10-31T03:00:12;9.03;;;7.80;;
82028;SDS011;71590;52.216;13.448;2023-10-31T03:02:39;10.67;;;9.03;;
82028;SDS011;71590;52.216;13.448;2023-10-31T03:05:06;12.40;;;7.80;;
82028;SDS011;71590;52.216;13.448;2023-10-31T03:07:34;10.63;;;7.63;;
82028;SDS011;71590;52.216;13.448;2023-10-31T03:10:01;11.10;;;7.97;;
82028;SDS011;71590;52.216;13.448;2023-10-31T03:12:29;9.47;;;8.13;;
82028;SDS011;71590;52.216;13.448;2023-10-31T03:14:56;11.00;;;8.77;;
82028;SDS011;71590;52.216;13.448;2023-10-31T03:17:23;11.23;;;9.40;;
82028;SDS011;71590;52.216;13.448;2023-10-31T03:19:51;9.40;;;8.47;;
82028;SDS011;71590;52.216;13.448;2023-10-31T03:22:19;10.33;;;9.20;;
82028;SDS011;71590;52.216;13.448;2023-10-31T03:24:46;10.10;;;8.03;;
82028;SDS011;71590;52.216;13.448;2023-10-31T03:27:14;11.27;;;8.83;;
82028;SDS011;71590;52.216;13.448;2023-10-31T03:29:41;9.87;;;8.40;;
82028;SDS011;71590;52.216;13.448;2023-10-31T03:32:09;10.70;;;9.07;;
82028;SDS011;71590;52.216;13.448;2023-10-31T03:34:36;11.63;;;10.07;;
82028;SDS011;71590;52.216;13.448;2023-10-31T03:37:04;8.73;;;7.93;;
82028;SDS011;71590;52.216;13.448;2023-10-31T03:39:31;10.63;;;8.93;;
82028;SDS011;71590;52.216;13.448;2023-10-31T03:41:59;10.67;;;8.67;;
82028;SDS011;71590;52.216;13.448;2023-10-31T03:44:26;10.23;;;9.10;;
82028;SDS011;71590;52.216;13.448;2023-10-31T03:46:54;9.23;;;8.30;;
82028;SDS011;71590;52.216;13.448;2023-10-31T03:49:21;8.83;;;7.83;;
82028;SDS011;71590;52.216;13.448;2023-10-31T03:51:48;11.63;;;8.53;;
82028;SDS011;71590;52.216;13.448;2023-10-31T03:54:16;8.57;;;7.57;;
82028;SDS011;71590;52.216;13.448;2023-10-31T03:56:44;10.10;;;8.43;;
82028;SDS011;71590;52.216;13.448;2023-10-31T03:59:11;9.60;;;8.53;;
82028;SDS011;71590;52.216;13.448;2023-10-31T04:01:39;9.80;;;8.90;;
82028;SDS011;71590;52.216;13.448;2023-10-31T04:04:06;10.43;;;9.43;;
82028;SDS011;71590;52.216;13.448;2023-10-31T04:06:33;11.40;;;8.60;;
82028;SDS011;71590;52.216;13.448;2023-10-31T04:09:01;9.30;;;8.33;;
82028;SDS011;71590;52.216;13.448;2023-10-31T04:11:28;10.07;;;8.43;;
82028;SDS011;71590;52.216;13.448;2023-10-31T04:13:56;11.40;;;8.17;;
82028;SDS011;71590;52.216;13.448;2023-10-31T04:16:23;13.37;;;9.63;;
82028;SDS011;71590;52.216;13.448;2023-10-31T04:18:50;10.37;;;8.60;;
82028;SDS011;71590;52.216;13.448;2023-10-31T04:21:18;10.83;;;7.93;;
82028;SDS011;71590;52.216;13.448;2023-10-31T04:23:45;8.97;;;7.93;;
82028;SDS011;71590;52.216;13.448;2023-10-31T04:26:12;10.00;;;9.10;;
82028;SDS011;71590;52.216;13.448;2023-10-31T04:28:40;11.30;;;9.03;;
82028;SDS011;71590;52.216;13.448;2023-10-31T04:31:07;9.20;;;8.30;;
82028;SDS011;71590;52.216;13.448;2023-10-31T04:33:35;16.80;;;9.20;;
82028;SDS011;71590;52.216;13.448;2023-10-31T04:36:02;11.27;;;9.50;;
82028;SDS011;71590;52.216;13.448;2023-10-31T04:38:30;11.03;;;9.40;;
82028;SDS011;71590;52.216;13.448;2023-10-31T04:40:57;12.07;;;10.87;;
82028;SDS011;71590;52.216;13.448;2023-10-31T04:43:24;11.93;;;10.50;;
82028;SDS011;71590;52.216;13.448;2023-10-31T04:45:51;12.37;;;10.40;;
82028;SDS011;71590;52.216;13.448;2023-10-31T04:48:19;12.73;;;11.13;;
82028;SDS011;71590;52.216;13.448;2023-10-31T04:50:46;12.53;;;11.33;;
82028;SDS011;71590;52.216;13.448;2023-10-31T04:53:13;13.50;;;11.10;;
82028;SDS011;71590;52.216;13.448;2023-10-31T04:55:40;12.80;;;11.53;;
82028;SDS011;71590;52.216;13.448;2023-10-31T04:58:07;15.07;;;11.30;;
82028;SDS011;71590;52.216;13.448;2023-10-31T05:00:35;12.33;;;11.10;;
82028;SDS011;71590;52.216;13.448;2023-10-31T05:03:02;12.13;;;10.83;;
82028;SDS011;71590;52.216;13.448;2023-10-31T05:05:29;13.00;;;10.97;;
82028;SDS011;71590;52.216;13.448;2023-10-31T05:07:57;16.40;;;13.03;;
82028;SDS011;71590;52.216;13.448;2023-10-31T05:10:24;15.13;;;12.37;;
82028;SDS011;71590;52.216;13.448;2023-10-31T05:12:52;13.07;;;11.50;;
82028;SDS011;71590;52.216;13.448;2023-10-31T05:15:20;14.20;;;12.77;;
82028;SDS011;71590;52.216;13.448;2023-10-31T05:17:47;15.13;;;13.13;;
82028;SDS011;71590;52.216;13.448;2023-10-31T05:20:14;16.53;;;13.57;;
82028;SDS011;71590;52.216;13.448;2023-10-31T05:22:42;16.07;;;12.97;;
82028;SDS011;71590;52.216;13.448;2023-10-31T05:25:09;14.20;;;12.73;;
82028;SDS011;71590;52.216;13.448;2023-10-31T05:27:36;13.67;;;12.20;;
82028;SDS011;71590;52.216;13.448;2023-10-31T05:30:03;13.37;;;12.07;;
82028;SDS011;71590;52.216;13.448;2023-10-31T05:32:31;15.03;;;13.00;;
82028;SDS011;71590;52.216;13.448;2023-10-31T05:34:58;13.93;;;12.37;;
82028;SDS011;71590;52.216;13.448;2023-10-31T05:37:26;12.33;;;11.13;;
82028;SDS011;71590;52.216;13.448;2023-10-31T05:39:53;11.33;;;10.00;;
82028;SDS011;71590;52.216;13.448;2023-10-31T05:42:20;11.10;;;10.10;;
82028;SDS011;71590;52.216;13.448;2023-10-31T05:44:47;10.70;;;9.77;;
82028;SDS011;71590;52.216;13.448;2023-10-31T05:47:15;10.20;;;9.30;;
82028;SDS011;71590;52.216;13.448;2023-10-31T05:49:43;9.73;;;8.73;;
82028;SDS011;71590;52.216;13.448;2023-10-31T05:52:10;11.30;;;9.77;;
82028;SDS011;71590;52.216;13.448;2023-10-31T05:54:37;9.50;;;8.13;;
82028;SDS011;71590;52.216;13.448;2023-10-31T05:57:04;8.53;;;7.73;;
82028;SDS011;71590;52.216;13.448;2023-10-31T05:59:31;9.87;;;7.70;;
82028;SDS011;71590;52.216;13.448;2023-10-31T06:01:59;7.37;;;6.60;;
82028;SDS011;71590;52.216;13.448;2023-10-31T06:04:26;7.87;;;6.00;;
82028;SDS011;71590;52.216;13.448;2023-10-31T06:06:53;6.47;;;5.97;;
82028;SDS011;71590;52.216;13.448;2023-10-31T06:09:20;7.57;;;6.83;;
82028;SDS011;71590;52.216;13.448;2023-10-31T06:11:48;7.73;;;6.53;;
82028;SDS011;71590;52.216;13.448;2023-10-31T06:14:16;7.53;;;6.77;;
82028;SDS011;71590;52.216;13.448;2023-10-31T06:16:43;6.50;;;6.00;;
82028;SDS011;71590;52.216;13.448;2023-10-31T06:19:11;6.43;;;5.83;;
82028;SDS011;71590;52.216;13.448;2023-10-31T06:21:38;6.10;;;5.60;;
82028;SDS011;71590;52.216;13.448;2023-10-31T06:24:06;7.17;;;5.87;;
82028;SDS011;71590;52.216;13.448;2023-10-31T06:26:34;5.90;;;4.97;;
82028;SDS011;71590;52.216;13.448;2023-10-31T06:29:01;6.47;;;5.20;;
82028;SDS011;71590;52.216;13.448;2023-10-31T06:31:34;7.47;;;4.77;;
82028;SDS011;71590;52.216;13.448;2023-10-31T06:34:01;4.50;;;4.10;;
82028;SDS011;71590;52.216;13.448;2023-10-31T06:36:28;5.67;;;3.97;;
82028;SDS011;71590;52.216;13.448;2023-10-31T06:38:56;4.70;;;4.20;;
82028;SDS011;71590;52.216;13.448;2023-10-31T06:41:23;6.13;;;4.23;;
82028;SDS011;71590;52.216;13.448;2023-10-31T06:43:50;4.97;;;4.57;;
82028;SDS011;71590;52.216;13.448;2023-10-31T06:46:18;4.57;;;4.20;;
82028;SDS011;71590;52.216;13.448;2023-10-31T06:48:45;4.50;;;4.10;;
82028;SDS011;71590;52.216;13.448;2023-10-31T06:51:12;5.10;;;4.20;;
82028;SDS011;71590;52.216;13.448;2023-10-31T06:53:40;4.57;;;4.17;;
82028;SDS011;71590;52.216;13.448;2023-10-31T06:56:07;5.77;;;4.17;;
82028;SDS011;71590;52.216;13.448;2023-10-31T06:58:34;4.80;;;4.40;;
82028;SDS011;71590;52.216;13.448;2023-10-31T07:01:02;6.63;;;5.73;;
82028;SDS011;71590;52.216;13.448;2023-10-31T07:03:29;6.13;;;5.43;;
82028;SDS011;71590;52.216;13.448;2023-10-31T07:05:56;6.80;;;5.63;;
82028;SDS011;71590;52.216;13.448;2023-10-31T07:08:25;7.33;;;5.60;;
82028;SDS011;71590;52.216;13.448;2023-10-31T07:10:52;6.47;;;5.87;;
82028;SDS011;71590;52.216;13.448;2023-10-31T07:13:20;5.87;;;5.37;;
82028;SDS011;71590;52.216;13.448;2023-10-31T07:15:47;7.93;;;6.00;;
82028;SDS011;71590;52.216;13.448;2023-10-31T07:18:14;7.57;;;5.87;;
82028;SDS011;71590;52.216;13.448;2023-10-31T07:20:42;7.93;;;6.60;;
82028;SDS011;71590;52.216;13.448;2023-10-31T07:23:09;6.90;;;6.10;;
82028;SDS011;71590;52.216;13.448;2023-10-31T07:25:36;7.67;;;6.07;;
82028;SDS011;71590;52.216;13.448;2023-10-31T07:28:03;11.03;;;6.77;;
82028;SDS011;71590;52.216;13.448;2023-10-31T07:30:31;9.93;;;7.27;;
82028;SDS011;71590;52.216;13.448;2023-10-31T07:32:58;9.23;;;6.43;;
82028;SDS011;71590;52.216;13.448;2023-10-31T07:35:25;6.57;;;5.83;;
82028;SDS011;71590;52.216;13.448;2023-10-31T07:37:53;6.53;;;5.90;;
82028;SDS011;71590;52.216;13.448;2023-10-31T07:40:20;6.47;;;5.70;;
82028;SDS011;71590;52.216;13.448;2023-10-31T07:42:47;6.50;;;5.60;;
82028;SDS011;71590;52.216;13.448;2023-10-31T07:45:14;7.57;;;6.73;;
82028;SDS011;71590;52.216;13.448;2023-10-31T07:47:42;9.13;;;6.00;;
82028;SDS011;71590;52.216;13.448;2023-10-31T07:50:09;7.20;;;6.60;;
82028;SDS011;71590;52.216;13.448;2023-10-31T07:52:36;3.00;;;2.80;;
82028;SDS011;71590;52.216;13.448;2023-10-31T07:55:04;2.50;;;2.30;;
82028;SDS011;71590;52.216;13.448;2023-10-31T07:57:31;2.97;;;2.77;;
82028;SDS011;71590;52.216;13.448;2023-10-31T07:59:59;3.17;;;2.70;;
82028;SDS011;71590;52.216;13.448;2023-10-31T08:02:26;2.97;;;2.43;;
82028;SDS011;71590;52.216;13.448;2023-10-31T08:04:53;2.77;;;2.10;;
82028;SDS011;71590;52.216;13.448;2023-10-31T08:07:20;2.90;;;1.83;;
82028;SDS011;71590;52.216;13.448;2023-10-31T08:09:49;1.60;;;1.50;;
82028;SDS011;71590;52.216;13.448;2023-10-31T08:12:16;1.20;;;1.10;;
82028;SDS011;71590;52.216;13.448;2023-10-31T08:14:44;1.50;;;1.40;;
82028;SDS011;71590;52.216;13.448;2023-10-31T08:17:12;1.03;;;1.03;;
82028;SDS011;71590;52.216;13.448;2023-10-31T08:19:39;1.60;;;1.20;;
82028;SDS011;71590;52.216;13.448;2023-10-31T08:22:06;1.20;;;1.10;;
82028;SDS011;71590;52.216;13.448;2023-10-31T08:24:33;0.63;;;0.63;;
82028;SDS011;71590;52.216;13.448;2023-10-31T08:27:05;1.03;;;0.83;;
82028;SDS011;71590;52.216;13.448;2023-10-31T08:29:33;0.63;;;0.63;;
82028;SDS011;71590;52.216;13.448;2023-10-31T08:32:00;0.70;;;0.70;;
82028;SDS011;71590;52.216;13.448;2023-10-31T08:34:28;0.60;;;0.60;;
82028;SDS011;71590;52.216;13.448;2023-10-31T08:36:55;0.70;;;0.70;;
82028;SDS011;71590;52.216;13.448;2023-10-31T08:39:25;1.23;;;0.97;;
82028;SDS011;71590;52.216;13.448;2023-10-31T08:41:56;1.00;;;1.00;;
82028;SDS011;71590;52.216;13.448;2023-10-31T08:44:23;0.60;;;0.60;;
82028;SDS011;71590;52.216;13.448;2023-10-31T08:46:51;0.60;;;0.60;;
82028;SDS011;71590;52.216;13.448;2023-10-31T08:49:18;0.60;;;0.60;;
82028;SDS011;71590;52.216;13.448;2023-10-31T08:51:46;0.90;;;0.70;;
82028;SDS011;71590;52.216;13.448;2023-10-31T08:54:13;0.80;;;0.63;;
82028;SDS011;71590;52.216;13.448;2023-10-31T08:56:40;0.97;;;0.67;;
82028;SDS011;71590;52.216;13.448;2023-10-31T08:59:08;2.97;;;0.70;;
82028;SDS011;71590;52.216;13.448;2023-10-31T09:01:35;0.97;;;0.80;;
82028;SDS011;71590;52.216;13.448;2023-10-31T09:04:03;0.60;;;0.60;;
82028;SDS011;71590;52.216;13.448;2023-10-31T09:06:30;1.10;;;0.70;;
82028;SDS011;71590;52.216;13.448;2023-10-31T09:08:57;0.80;;;0.80;;
82028;SDS011;71590;52.216;13.448;2023-10-31T09:11:24;0.80;;;0.80;;
82028;SDS011;71590;52.216;13.448;2023-10-31T09:13:52;2.23;;;0.90;;
82028;SDS011;71590;52.216;13.448;2023-10-31T09:16:19;0.77;;;0.77;;
82028;SDS011;71590;52.216;13.448;2023-10-31T09:18:46;0.77;;;0.77;;
82028;SDS011;71590;52.216;13.448;2023-10-31T09:21:14;0.73;;;0.70;;
82028;SDS011;71590;52.216;13.448;2023-10-31T09:23:41;2.77;;;1.10;;
82028;SDS011;71590;52.216;13.448;2023-10-31T09:26:08;0.80;;;0.80;;
82028;SDS011;71590;52.216;13.448;2023-10-31T09:28:35;0.93;;;0.80;;
82028;SDS011;71590;52.216;13.448;2023-10-31T09:31:04;0.90;;;0.90;;
82028;SDS011;71590;52.216;13.448;2023-10-31T09:33:31;1.03;;;0.93;;
82028;SDS011;71590;52.216;13.448;2023-10-31T09:35:58;1.90;;;0.83;;
82028;SDS011;71590;52.216;13.448;2023-10-31T09:38:25;1.97;;;1.13;;
82028;SDS011;71590;52.216;13.448;2023-10-31T09:40:54;2.57;;;0.93;;
82028;SDS011;71590;52.216;13.448;2023-10-31T09:43:21;1.80;;;0.90;;
82028;SDS011;71590;52.216;13.448;2023-10-31T09:45:48;1.27;;;0.90;;
82028;SDS011;71590;52.216;13.448;2023-10-31T09:48:16;1.13;;;1.10;;
82028;SDS011;71590;52.216;13.448;2023-10-31T09:50:45;1.87;;;1.00;;
82028;SDS011;71590;52.216;13.448;2023-10-31T09:53:14;1.10;;;1.00;;
82028;SDS011;71590;52.216;13.448;2023-10-31T09:55:42;1.93;;;0.80;;
82028;SDS011;71590;52.216;13.448;2023-10-31T09:58:09;0.83;;;0.83;;
82028;SDS011;71590;52.216;13.448;2023-10-31T10:00:37;0.93;;;0.93;;
82028;SDS011;71590;52.216;13.448;2023-10-31T10:03:07;2.13;;;1.10;;
82028;SDS011;71590;52.216;13.448;2023-10-31T10:05:36;2.13;;;0.90;;
82028;SDS011;71590;52.216;13.448;2023-10-31T10:08:03;1.57;;;1.03;;
82028;SDS011;71590;52.216;13.448;2023-10-31T10:10:31;0.90;;;0.90;;
82028;SDS011;71590;52.216;13.448;2023-10-31T10:12:58;0.90;;;0.90;;
82028;SDS011;71590;52.216;13.448;2023-10-31T10:15:29;0.80;;;0.80;;
82028;SDS011;71590;52.216;13.448;2023-10-31T10:17:56;0.60;;;0.60;;
82028;SDS011;71590;52.216;13.448;2023-10-31T10:20:23;1.80;;;0.80;;
82028;SDS011;71590;52.216;13.448;2023-10-31T10:22:50;1.17;;;1.07;;
82028;SDS011;71590;52.216;13.448;2023-10-31T10:25:18;1.13;;;0.80;;
82028;SDS011;71590;52.216;13.448;2023-10-31T10:27:46;1.40;;;1.30;;
82028;SDS011;71590;52.216;13.448;2023-10-31T10:30:14;3.37;;;1.17;;
82028;SDS011;71590;52.216;13.448;2023-10-31T10:32:41;1.17;;;0.83;;
82028;SDS011;71590;52.216;13.448;2023-10-31T10:35:08;1.10;;;1.00;;
82028;SDS011;71590;52.216;13.448;2023-10-31T10:37:39;1.57;;;0.90;;
82028;SDS011;71590;52.216;13.448;2023-10-31T10:40:07;1.03;;;0.93;;
82028;SDS011;71590;52.216;13.448;2023-10-31T10:45:05;4.20;;;1.50;;
82028;SDS011;71590;52.216;13.448;2023-10-31T10:47:32;1.17;;;1.07;;
82028;SDS011;71590;52.216;13.448;2023-10-31T10:50:01;1.10;;;1.00;;
82028;SDS011;71590;52.216;13.448;2023-10-31T10:52:38;3.10;;;1.20;;
82028;SDS011;71590;52.216;13.448;2023-10-31T10:55:17;1.20;;;1.20;;
82028;SDS011;71590;52.216;13.448;2023-10-31T10:58:03;1.20;;;1.13;;
82028;SDS011;71590;52.216;13.448;2023-10-31T11:00:31;1.00;;;1.00;;
82028;SDS011;71590;52.216;13.448;2023-10-31T11:02:59;1.17;;;1.17;;
82028;SDS011;71590;52.216;13.448;2023-10-31T11:05:28;1.17;;;1.10;;
82028;SDS011;71590;52.216;13.448;2023-10-31T11:07:55;1.27;;;1.27;;
82028;SDS011;71590;52.216;13.448;2023-10-31T11:10:25;1.00;;;0.90;;
82028;SDS011;71590;52.216;13.448;2023-10-31T11:12:54;1.83;;;1.20;;
82028;SDS011;71590;52.216;13.448;2023-10-31T11:15:23;1.40;;;1.30;;
82028;SDS011;71590;52.216;13.448;2023-10-31T11:17:50;2.23;;;1.07;;
82028;SDS011;71590;52.216;13.448;2023-10-31T11:20:18;1.67;;;1.10;;
82028;SDS011;71590;52.216;13.448;2023-10-31T11:22:46;1.20;;;1.20;;
82028;SDS011;71590;52.216;13.448;2023-10-31T11:25:18;1.10;;;1.10;;
82028;SDS011;71590;52.216;13.448;2023-10-31T11:28:10;3.33;;;1.73;;
82028;SDS011;71590;52.216;13.448;2023-10-31T11:30:37;2.63;;;1.83;;
82028;SDS011;71590;52.216;13.448;2023-10-31T11:33:05;1.80;;;1.70;;
82028;SDS011;71590;52.216;13.448;2023-10-31T11:35:35;2.13;;;1.93;;
82028;SDS011;71590;52.216;13.448;2023-10-31T11:38:04;1.77;;;1.13;;
82028;SDS011;71590;52.216;13.448;2023-10-31T11:40:33;1.00;;;1.00;;
82028;SDS011;71590;52.216;13.448;2023-10-31T11:43:04;1.40;;;1.30;;
82028;SDS011;71590;52.216;13.448;2023-10-31T11:45:35;1.40;;;1.20;;
82028;SDS011;71590;52.216;13.448;2023-10-31T11:48:04;1.23;;;1.23;;
82028;SDS011;71590;52.216;13.448;2023-10-31T11:50:32;1.97;;;1.20;;
82028;SDS011;71590;52.216;13.448;2023-10-31T11:53:06;1.07;;;1.07;;
82028;SDS011;71590;52.216;13.448;2023-10-31T11:55:34;1.30;;;1.30;;
82028;SDS011;71590;52.216;13.448;2023-10-31T12:01:03;1.17;;;1.10;;
82028;SDS011;71590;52.216;13.448;2023-10-31T12:03:41;1.37;;;1.27;;
82028;SDS011;71590;52.216;13.448;2023-10-31T12:06:09;2.30;;;1.10;;
82028;SDS011;71590;52.216;13.448;2023-10-31T12:08:38;1.33;;;1.20;;
82028;SDS011;71590;52.216;13.448;2023-10-31T12:11:06;4.83;;;1.67;;
82028;SDS011;71590;52.216;13.448;2023-10-31T12:13:34;2.00;;;1.30;;
82028;SDS011;71590;52.216;13.448;2023-10-31T12:16:01;0.80;;;0.80;;
82028;SDS011;71590;52.216;13.448;2023-10-31T12:18:29;4.50;;;1.10;;
82028;SDS011;71590;52.216;13.448;2023-10-31T12:20:56;1.50;;;1.40;;
82028;SDS011;71590;52.216;13.448;2023-10-31T12:23:23;0.93;;;0.90;;
82028;SDS011;71590;52.216;13.448;2023-10-31T12:25:51;2.33;;;1.00;;
82028;SDS011;71590;52.216;13.448;2023-10-31T12:28:19;1.93;;;1.03;;
82028;SDS011;71590;52.216;13.448;2023-10-31T12:30:47;2.03;;;1.00;;
82028;SDS011;71590;52.216;13.448;2023-10-31T12:33:15;1.03;;;1.00;;
82028;SDS011;71590;52.216;13.448;2023-10-31T12:35:43;0.97;;;0.97;;
82028;SDS011;71590;52.216;13.448;2023-10-31T12:38:10;1.50;;;1.20;;
82028;SDS011;71590;52.216;13.448;2023-10-31T12:40:43;0.77;;;0.77;;
82028;SDS011;71590;52.216;13.448;2023-10-31T12:43:10;3.23;;;1.07;;
82028;SDS011;71590;52.216;13.448;2023-10-31T12:45:37;7.03;;;2.70;;
82028;SDS011;71590;52.216;13.448;2023-10-31T12:48:06;3.00;;;1.30;;
82028;SDS011;71590;52.216;13.448;2023-10-31T12:50:34;1.00;;;0.90;;
82028;SDS011;71590;52.216;13.448;2023-10-31T12:53:04;0.90;;;0.83;;
82028;SDS011;71590;52.216;13.448;2023-10-31T12:55:38;4.80;;;1.27;;
82028;SDS011;71590;52.216;13.448;2023-10-31T12:58:06;1.57;;;0.80;;
82028;SDS011;71590;52.216;13.448;2023-10-31T13:00:36;0.90;;;0.90;;
82028;SDS011;71590;52.216;13.448;2023-10-31T13:03:07;1.20;;;1.10;;
82028;SDS011;71590;52.216;13.448;2023-10-31T13:05:35;1.10;;;1.00;;
82028;SDS011;71590;52.216;13.448;2023-10-31T13:08:02;0.77;;;0.77;;
82028;SDS011;71590;52.216;13.448;2023-10-31T13:10:32;2.73;;;1.00;;
82028;SDS011;71590;52.216;13.448;2023-10-31T13:13:00;0.80;;;0.80;;
82028;SDS011;71590;52.216;13.448;2023-10-31T13:15:27;1.50;;;0.73;;
82028;SDS011;71590;52.216;13.448;2023-10-31T13:17:54;0.80;;;0.80;;
82028;SDS011;71590;52.216;13.448;2023-10-31T13:20:23;1.23;;;1.03;;
82028;SDS011;71590;52.216;13.448;2023-10-31T13:22:50;1.00;;;0.90;;
82028;SDS011;71590;52.216;13.448;2023-10-31T13:25:18;0.60;;;0.60;;
82028;SDS011;71590;52.216;13.448;2023-10-31T13:27:45;1.97;;;0.80;;
82028;SDS011;71590;52.216;13.448;2023-10-31T13:30:17;2.97;;;0.90;;
82028;SDS011;71590;52.216;13.448;2023-10-31T13:32:44;0.83;;;0.50;;
82028;SDS011;71590;52.216;13.448;2023-10-31T13:35:12;0.70;;;0.60;;
82028;SDS011;71590;52.216;13.448;2023-10-31T13:37:41;1.40;;;0.50;;
82028;SDS011;71590;52.216;13.448;2023-10-31T13:40:08;1.47;;;0.60;;
82028;SDS011;71590;52.216;13.448;2023-10-31T13:42:35;0.50;;;0.50;;
82028;SDS011;71590;52.216;13.448;2023-10-31T13:45:03;0.63;;;0.63;;
82028;SDS011;71590;52.216;13.448;2023-10-31T13:47:32;0.60;;;0.60;;
82028;SDS011;71590;52.216;13.448;2023-10-31T13:50:00;2.90;;;0.90;;
82028;SDS011;71590;52.216;13.448;2023-10-31T13:52:27;1.03;;;0.80;;
82028;SDS011;71590;52.216;13.448;2023-10-31T13:54:55;1.20;;;0.70;;
82028;SDS011;71590;52.216;13.448;2023-10-31T13:57:24;2.30;;;0.90;;
82028;SDS011;71590;52.216;13.448;2023-10-31T13:59:51;0.80;;;0.80;;
82028;SDS011;71590;52.216;13.448;2023-10-31T14:02:20;1.60;;;0.83;;
82028;SDS011;71590;52.216;13.448;2023-10-31T14:04:48;1.40;;;1.13;;
82028;SDS011;71590;52.216;13.448;2023-10-31T14:07:21;2.30;;;1.10;;
82028;SDS011;71590;52.216;13.448;2023-10-31T14:09:51;2.10;;;0.77;;
82028;SDS011;71590;52.216;13.448;2023-10-31T14:12:19;3.40;;;0.80;;
82028;SDS011;71590;52.216;13.448;2023-10-31T14:14:46;0.87;;;0.80;;
82028;SDS011;71590;52.216;13.448;2023-10-31T14:17:16;0.87;;;0.87;;
82028;SDS011;71590;52.216;13.448;2023-10-31T14:19:44;0.87;;;0.87;;
82028;SDS011;71590;52.216;13.448;2023-10-31T14:22:14;1.00;;;1.00;;
82028;SDS011;71590;52.216;13.448;2023-10-31T14:24:41;2.30;;;1.13;;
82028;SDS011;71590;52.216;13.448;2023-10-31T14:27:09;0.97;;;0.90;;
82028;SDS011;71590;52.216;13.448;2023-10-31T14:29:37;1.00;;;1.00;;
82028;SDS011;71590;52.216;13.448;2023-10-31T14:32:08;1.27;;;1.00;;
82028;SDS011;71590;52.216;13.448;2023-10-31T14:34:36;0.70;;;0.70;;
82028;SDS011;71590;52.216;13.448;2023-10-31T14:37:04;0.80;;;0.80;;
82028;SDS011;71590;52.216;13.448;2023-10-31T14:40:02;0.80;;;0.80;;